createdAt,value
2017-12-05T00:00:17.387Z,7.00
2017-12-05T00:01:17.297Z,6.91
2017-12-05T00:03:10.552Z,7.03
2017-12-05T00:04:10.487Z,6.95
2017-12-05T00:06:03.759Z,7.03
2017-12-05T00:07:03.668Z,6.95
2017-12-05T00:08:56.946Z,7.03
2017-12-05T00:09:56.859Z,6.90
2017-12-05T00:11:50.110Z,6.93
2017-12-05T00:12:50.042Z,6.94
2017-12-05T00:14:43.395Z,6.88
2017-12-05T00:15:43.298Z,6.88
2017-12-05T00:17:36.556Z,6.88
2017-12-05T00:18:36.483Z,6.88
2017-12-05T00:20:29.762Z,6.80
2017-12-05T00:21:29.688Z,6.82
2017-12-05T00:23:22.926Z,6.93
2017-12-05T00:24:22.857Z,6.83
2017-12-05T00:26:16.131Z,6.90
2017-12-05T00:27:16.041Z,6.93
2017-12-05T00:29:09.306Z,6.85
2017-12-05T00:30:09.220Z,6.82
2017-12-05T00:32:02.479Z,6.78
2017-12-05T00:33:02.409Z,6.86
2017-12-05T00:34:55.682Z,6.83
2017-12-05T00:35:55.595Z,6.86
2017-12-05T00:37:48.849Z,6.86
2017-12-05T00:38:48.781Z,6.86
2017-12-05T00:40:42.057Z,6.90
2017-12-05T00:41:41.968Z,6.90
2017-12-05T00:43:35.224Z,6.80
2017-12-05T00:44:35.153Z,6.88
2017-12-05T00:46:28.431Z,6.94
2017-12-05T00:47:28.338Z,6.85
2017-12-05T00:49:21.618Z,6.86
2017-12-05T00:50:21.528Z,6.83
2017-12-05T00:52:14.782Z,6.79
2017-12-05T00:53:14.715Z,6.86
2017-12-05T00:55:07.988Z,6.76
2017-12-05T00:56:07.916Z,6.79
2017-12-05T00:58:01.169Z,6.85
2017-12-05T00:59:01.099Z,6.82
2017-12-05T01:00:54.373Z,6.82
2017-12-05T01:01:54.280Z,6.85
2017-12-05T01:03:47.538Z,6.83
2017-12-05T01:04:47.467Z,6.82
2017-12-05T01:06:40.744Z,6.72
2017-12-05T01:07:40.652Z,6.65
2017-12-05T01:09:33.921Z,6.83
2017-12-05T01:10:33.829Z,6.86
2017-12-05T01:12:27.087Z,6.73
2017-12-05T01:13:27.016Z,6.79
2017-12-05T01:15:20.387Z,6.82
2017-12-05T01:16:20.300Z,6.83
2017-12-05T01:18:13.558Z,6.79
2017-12-05T01:19:13.488Z,6.78
2017-12-05T01:21:06.761Z,6.78
2017-12-05T01:22:06.671Z,6.91
2017-12-05T01:23:59.950Z,6.75
2017-12-05T01:24:59.858Z,6.80
2017-12-05T01:26:53.147Z,6.75
2017-12-05T01:27:53.056Z,6.78
2017-12-05T01:29:46.389Z,6.75
2017-12-05T01:30:46.297Z,6.70
2017-12-05T01:32:39.554Z,6.73
2017-12-05T01:33:39.482Z,6.70
2017-12-05T01:35:32.759Z,6.79
2017-12-05T01:36:32.669Z,6.60
2017-12-05T01:38:25.930Z,6.70
2017-12-05T01:39:25.853Z,6.64
2017-12-05T01:41:19.130Z,6.79
2017-12-05T01:42:19.042Z,6.76
2017-12-05T01:44:12.386Z,6.70
2017-12-05T01:45:12.297Z,6.79
2017-12-05T01:47:05.555Z,6.68
2017-12-05T01:48:05.484Z,6.76
2017-12-05T01:49:58.752Z,6.72
2017-12-05T01:50:58.669Z,6.67
2017-12-05T01:52:51.921Z,6.65
2017-12-05T01:53:51.850Z,6.62
2017-12-05T01:55:45.123Z,6.70
2017-12-05T01:56:45.033Z,6.57
2017-12-05T01:58:38.371Z,6.60
2017-12-05T01:59:38.297Z,6.60
2017-12-05T02:01:31.573Z,6.55
2017-12-05T02:02:31.484Z,6.54
2017-12-05T02:04:24.759Z,6.49
2017-12-05T02:05:24.670Z,6.61
2017-12-05T02:07:17.928Z,6.61
2017-12-05T02:08:17.857Z,6.62
2017-12-05T02:10:11.130Z,6.46
2017-12-05T02:11:11.042Z,6.58
2017-12-05T02:13:04.372Z,6.57
2017-12-05T02:14:04.299Z,6.52
2017-12-05T02:15:57.575Z,6.46
2017-12-05T02:16:57.486Z,6.49
2017-12-05T02:18:50.742Z,6.55
2017-12-05T02:19:50.669Z,6.52
2017-12-05T02:21:43.948Z,6.58
2017-12-05T02:22:43.857Z,6.51
2017-12-05T02:24:37.129Z,6.49
2017-12-05T02:25:37.041Z,6.37
2017-12-05T02:27:30.370Z,6.40
2017-12-05T02:28:30.297Z,6.39
2017-12-05T02:30:23.573Z,6.40
2017-12-05T02:31:23.483Z,6.57
2017-12-05T02:33:16.737Z,6.49
2017-12-05T02:34:16.668Z,6.39
2017-12-05T02:36:09.941Z,6.47
2017-12-05T02:37:09.852Z,6.57
2017-12-05T02:39:03.099Z,6.47
2017-12-05T02:40:03.028Z,6.55
2017-12-05T02:41:56.302Z,6.43
2017-12-05T02:42:56.214Z,6.42
2017-12-05T02:44:49.492Z,6.44
2017-12-05T02:45:49.404Z,6.36
2017-12-05T02:47:42.659Z,6.42
2017-12-05T02:48:42.588Z,6.43
2017-12-05T02:50:35.862Z,6.40
2017-12-05T02:51:35.775Z,6.43
2017-12-05T02:53:29.030Z,6.43
2017-12-05T02:54:28.959Z,6.37
2017-12-05T02:56:22.234Z,6.42
2017-12-05T02:57:22.143Z,6.42
2017-12-05T02:59:15.391Z,6.34
2017-12-05T03:00:15.321Z,6.36
2017-12-05T03:02:08.595Z,6.34
2017-12-05T03:03:08.507Z,6.34
2017-12-05T03:05:01.782Z,6.31
2017-12-05T03:06:01.692Z,6.29
2017-12-05T03:07:54.946Z,6.26
2017-12-05T03:08:54.876Z,6.25
2017-12-05T03:10:48.150Z,6.34
2017-12-05T03:11:48.062Z,6.33
2017-12-05T03:13:41.370Z,6.28
2017-12-05T03:14:41.299Z,6.37
2017-12-05T03:16:34.573Z,6.29
2017-12-05T03:17:34.483Z,6.33
2017-12-05T03:19:27.730Z,6.26
2017-12-05T03:20:27.660Z,6.29
2017-12-05T03:22:20.935Z,6.31
2017-12-05T03:23:20.844Z,6.24
2017-12-05T03:25:14.118Z,6.17
2017-12-05T03:26:14.028Z,6.25
2017-12-05T03:28:07.274Z,6.25
2017-12-05T03:29:07.202Z,6.33
2017-12-05T03:31:00.481Z,6.29
2017-12-05T03:32:00.385Z,6.25
2017-12-05T03:33:53.638Z,6.29
2017-12-05T03:34:53.571Z,6.26
2017-12-05T03:36:46.848Z,6.26
2017-12-05T03:37:46.755Z,6.26
2017-12-05T03:39:40.003Z,6.17
2017-12-05T03:40:39.931Z,6.17
2017-12-05T03:42:33.207Z,6.20
2017-12-05T03:43:33.119Z,6.25
2017-12-05T03:45:26.390Z,6.17
2017-12-05T03:46:26.302Z,6.13
2017-12-05T03:48:19.558Z,6.10
2017-12-05T03:49:19.490Z,6.17
2017-12-05T03:51:12.760Z,6.13
2017-12-05T03:52:12.671Z,6.17
2017-12-05T03:54:05.917Z,6.15
2017-12-05T03:55:05.850Z,6.10
2017-12-05T03:56:59.119Z,6.18
2017-12-05T03:57:59.033Z,6.06
2017-12-05T03:59:52.276Z,6.00
2017-12-05T04:00:52.207Z,5.89
2017-12-05T04:02:45.465Z,6.03
2017-12-05T04:03:45.376Z,6.03
2017-12-05T04:05:38.641Z,5.98
2017-12-05T04:06:38.549Z,6.00
2017-12-05T04:08:31.806Z,5.91
2017-12-05T04:09:31.732Z,6.00
2017-12-05T04:11:24.996Z,5.96
2017-12-05T04:12:24.906Z,5.92
2017-12-05T04:14:18.160Z,5.98
2017-12-05T04:15:18.091Z,5.96
2017-12-05T04:17:11.355Z,5.92
2017-12-05T04:18:11.261Z,5.96
2017-12-05T04:20:04.560Z,6.03
2017-12-05T04:21:04.446Z,5.89
2017-12-05T04:22:57.722Z,5.82
2017-12-05T04:23:57.633Z,5.80
2017-12-05T04:25:50.904Z,5.87
2017-12-05T04:26:50.820Z,5.87
2017-12-05T04:28:44.067Z,5.91
2017-12-05T04:29:44.001Z,5.91
2017-12-05T04:31:37.273Z,5.87
2017-12-05T04:32:37.183Z,5.88
2017-12-05T04:34:30.438Z,5.84
2017-12-05T04:35:30.369Z,5.82
2017-12-05T04:37:23.631Z,5.82
2017-12-05T04:38:23.538Z,5.82
2017-12-05T04:40:16.791Z,5.85
2017-12-05T04:41:16.722Z,5.82
2017-12-05T04:43:09.997Z,5.87
2017-12-05T04:44:09.911Z,5.92
2017-12-05T04:46:03.183Z,5.96
2017-12-05T04:47:03.090Z,5.89
2017-12-05T04:48:56.368Z,5.81
2017-12-05T04:49:56.297Z,5.84
2017-12-05T04:51:49.570Z,5.87
2017-12-05T04:52:49.481Z,5.88
2017-12-05T04:54:42.750Z,5.84
2017-12-05T04:55:42.679Z,5.82
2017-12-05T04:57:35.951Z,5.80
2017-12-05T04:58:35.859Z,5.81
2017-12-05T05:00:29.114Z,5.92
2017-12-05T05:01:29.044Z,5.88
2017-12-05T05:03:22.385Z,5.89
2017-12-05T05:04:22.295Z,5.96
2017-12-05T05:06:15.570Z,5.87
2017-12-05T05:07:15.481Z,5.92
2017-12-05T05:09:08.740Z,5.87
2017-12-05T05:10:08.664Z,5.92
2017-12-05T05:12:01.939Z,5.96
2017-12-05T05:13:01.853Z,5.92
2017-12-05T05:14:55.102Z,5.99
2017-12-05T05:15:55.032Z,5.89
2017-12-05T05:17:48.391Z,5.96
2017-12-05T05:18:48.296Z,5.95
2017-12-05T05:20:41.554Z,5.99
2017-12-05T05:21:41.483Z,6.02
2017-12-05T05:23:34.754Z,5.99
2017-12-05T05:24:34.665Z,6.00
2017-12-05T05:26:27.931Z,5.96
2017-12-05T05:27:27.838Z,5.96
2017-12-05T05:29:21.085Z,5.99
2017-12-05T05:30:21.018Z,5.96
2017-12-05T05:32:14.287Z,6.03
2017-12-05T05:33:14.198Z,5.98
2017-12-05T05:35:07.453Z,5.96
2017-12-05T05:36:07.381Z,5.98
2017-12-05T05:38:00.656Z,5.91
2017-12-05T05:39:00.566Z,5.95
2017-12-05T05:40:53.811Z,5.98
2017-12-05T05:41:53.739Z,5.98
2017-12-05T05:43:47.012Z,6.00
2017-12-05T05:44:46.923Z,6.05
2017-12-05T05:46:40.196Z,6.03
2017-12-05T05:47:40.106Z,6.02
2017-12-05T05:49:33.357Z,6.03
2017-12-05T05:50:33.282Z,6.00
2017-12-05T05:52:26.560Z,6.05
2017-12-05T05:53:26.464Z,6.09
2017-12-05T05:55:19.719Z,6.03
2017-12-05T05:56:19.648Z,6.07
2017-12-05T05:58:12.926Z,6.13
2017-12-05T05:59:12.836Z,6.14
2017-12-05T06:01:06.079Z,6.09
2017-12-05T06:02:06.006Z,6.07
2017-12-05T06:03:59.279Z,6.21
2017-12-05T06:04:59.191Z,6.15
2017-12-05T06:06:52.468Z,6.15
2017-12-05T06:07:52.379Z,6.09
2017-12-05T06:09:45.625Z,6.10
2017-12-05T06:10:45.556Z,6.00
2017-12-05T06:12:38.828Z,6.07
2017-12-05T06:13:38.738Z,6.05
2017-12-05T06:15:31.994Z,6.13
2017-12-05T06:16:31.922Z,6.14
2017-12-05T06:18:25.198Z,6.13
2017-12-05T06:19:25.105Z,6.05
2017-12-05T06:21:18.370Z,6.13
2017-12-05T06:22:18.299Z,6.15
2017-12-05T06:24:11.575Z,6.10
2017-12-05T06:25:11.490Z,6.15
2017-12-05T06:27:04.763Z,6.09
2017-12-05T06:28:04.671Z,6.10
2017-12-05T06:29:57.916Z,6.14
2017-12-05T06:30:57.847Z,6.13
2017-12-05T06:32:51.124Z,6.26
2017-12-05T06:33:51.035Z,6.14
2017-12-05T06:35:44.371Z,6.25
2017-12-05T06:36:44.303Z,6.31
2017-12-05T06:38:37.570Z,6.18
2017-12-05T06:39:37.491Z,6.17
2017-12-05T06:41:30.753Z,6.20
2017-12-05T06:42:30.669Z,6.20
2017-12-05T06:44:23.942Z,6.18
2017-12-05T06:45:23.852Z,6.24
2017-12-05T06:47:17.130Z,6.31
2017-12-05T06:48:17.035Z,6.31
2017-12-05T06:50:10.373Z,6.29
2017-12-05T06:51:10.300Z,6.33
2017-12-05T06:53:03.558Z,6.29
2017-12-05T06:54:03.473Z,6.33
2017-12-05T06:55:56.729Z,6.31
2017-12-05T06:56:56.656Z,6.28
2017-12-05T06:58:49.935Z,6.31
2017-12-05T06:59:49.841Z,6.26
2017-12-05T07:01:43.095Z,6.28
2017-12-05T07:02:43.026Z,6.25
2017-12-05T07:04:36.389Z,6.14
2017-12-05T07:05:36.297Z,6.24
2017-12-05T07:07:29.562Z,6.29
2017-12-05T07:08:29.471Z,6.25
2017-12-05T07:10:22.725Z,6.26
2017-12-05T07:11:22.657Z,6.29
2017-12-05T07:13:15.930Z,6.28
2017-12-05T07:14:15.842Z,6.29
2017-12-05T07:16:09.084Z,6.28
2017-12-05T07:17:09.013Z,6.25
2017-12-05T07:19:02.279Z,6.29
2017-12-05T07:20:02.189Z,6.29
2017-12-05T07:21:55.453Z,6.25
2017-12-05T07:22:55.381Z,6.26
2017-12-05T07:24:48.655Z,6.29
2017-12-05T07:25:48.566Z,6.26
2017-12-05T07:27:41.835Z,6.24
2017-12-05T07:28:41.751Z,6.26
2017-12-05T07:30:35.005Z,6.28
2017-12-05T07:31:34.936Z,6.29
2017-12-05T07:33:28.220Z,6.39
2017-12-05T07:34:28.127Z,6.42
2017-12-05T07:36:21.372Z,6.29
2017-12-05T07:37:21.299Z,6.40
2017-12-05T07:39:14.568Z,6.39
2017-12-05T07:40:14.474Z,6.28
2017-12-05T07:42:07.747Z,6.37
2017-12-05T07:43:07.657Z,6.29
2017-12-05T07:45:00.930Z,6.28
2017-12-05T07:46:00.841Z,6.34
2017-12-05T07:47:54.116Z,6.25
2017-12-05T07:48:54.026Z,6.37
2017-12-05T07:50:47.282Z,6.34
2017-12-05T07:51:47.211Z,6.34
2017-12-05T07:53:40.487Z,6.34
2017-12-05T07:54:40.395Z,6.33
2017-12-05T07:56:33.650Z,6.36
2017-12-05T07:57:33.579Z,6.29
2017-12-05T07:59:26.848Z,6.33
2017-12-05T08:00:26.754Z,6.37
2017-12-05T08:02:20.031Z,6.42
2017-12-05T08:03:19.954Z,6.37
2017-12-05T08:05:13.214Z,6.46
2017-12-05T08:06:13.124Z,6.43
2017-12-05T08:08:06.421Z,6.39
2017-12-05T08:09:06.321Z,6.44
2017-12-05T08:10:59.578Z,6.43
2017-12-05T08:11:59.497Z,6.40
2017-12-05T08:13:52.768Z,6.44
2017-12-05T08:14:52.679Z,6.43
2017-12-05T08:16:45.935Z,6.44
2017-12-05T08:17:45.862Z,6.46
2017-12-05T08:19:39.128Z,6.57
2017-12-05T08:20:39.066Z,6.51
2017-12-05T08:22:32.391Z,6.52
2017-12-05T08:23:32.302Z,6.57
2017-12-05T08:25:25.578Z,6.51
2017-12-05T08:26:25.497Z,6.58
2017-12-05T08:28:18.779Z,6.51
2017-12-05T08:29:18.690Z,6.57
2017-12-05T08:31:11.948Z,6.52
2017-12-05T08:32:11.876Z,6.57
2017-12-05T08:34:05.149Z,6.62
2017-12-05T08:35:05.064Z,6.49
2017-12-05T08:36:58.372Z,6.60
2017-12-05T08:37:58.302Z,6.60
2017-12-05T08:39:51.569Z,6.60
2017-12-05T08:40:51.478Z,6.68
2017-12-05T08:42:44.755Z,6.67
2017-12-05T08:43:44.655Z,6.68
2017-12-05T08:45:37.914Z,6.62
2017-12-05T08:46:37.832Z,6.62
2017-12-05T08:48:31.100Z,6.62
2017-12-05T08:49:31.010Z,6.79
2017-12-05T08:51:24.258Z,6.67
2017-12-05T08:52:24.184Z,6.68
2017-12-05T08:54:17.462Z,6.79
2017-12-05T08:55:17.415Z,6.70
2017-12-05T08:57:10.621Z,6.62
2017-12-05T08:58:10.546Z,6.65
2017-12-05T09:00:03.826Z,6.72
2017-12-05T09:01:03.735Z,6.64
2017-12-05T09:02:57.023Z,6.75
2017-12-05T09:03:56.912Z,6.62
2017-12-05T09:05:50.161Z,6.72
2017-12-05T09:06:50.091Z,6.76
2017-12-05T09:08:43.355Z,6.72
2017-12-05T09:09:43.265Z,6.68
2017-12-05T09:11:36.505Z,6.68
2017-12-05T09:12:36.436Z,6.76
2017-12-05T09:14:29.705Z,6.73
2017-12-05T09:15:29.615Z,6.78
2017-12-05T09:17:22.869Z,6.76
2017-12-05T09:18:22.800Z,6.76
2017-12-05T09:20:16.064Z,6.78
2017-12-05T09:21:15.973Z,6.80
2017-12-05T09:23:09.250Z,6.90
2017-12-05T09:24:09.156Z,6.90
2017-12-05T09:26:02.395Z,6.82
2017-12-05T09:27:02.324Z,6.86
2017-12-05T09:28:55.586Z,6.79
2017-12-05T09:29:55.498Z,6.79
2017-12-05T09:31:48.755Z,6.88
2017-12-05T09:32:48.682Z,6.82
2017-12-05T09:34:41.955Z,6.86
2017-12-05T09:35:41.863Z,6.75
2017-12-05T09:37:35.116Z,6.83
2017-12-05T09:38:35.045Z,6.76
2017-12-05T09:40:28.393Z,6.86
2017-12-05T09:41:28.301Z,6.80
2017-12-05T09:43:21.570Z,6.85
2017-12-05T09:44:21.480Z,6.90
2017-12-05T09:46:14.727Z,6.94
2017-12-05T09:47:14.655Z,6.91
2017-12-05T09:49:07.922Z,6.91
2017-12-05T09:50:07.832Z,6.86
2017-12-05T09:52:01.087Z,6.85
2017-12-05T09:53:01.008Z,6.93
2017-12-05T09:54:54.273Z,6.88
2017-12-05T09:55:54.183Z,6.80
2017-12-05T09:57:47.430Z,6.86
2017-12-05T09:58:47.356Z,6.93
2017-12-05T10:00:40.623Z,6.90
2017-12-05T10:01:40.534Z,6.83
2017-12-05T10:03:33.798Z,6.90
2017-12-05T10:04:33.708Z,6.91
2017-12-05T10:06:26.969Z,6.83
2017-12-05T10:07:26.899Z,7.00
2017-12-05T10:09:20.164Z,6.97
2017-12-05T10:10:20.072Z,7.01
2017-12-05T10:12:13.341Z,6.93
2017-12-05T10:13:13.271Z,6.95
2017-12-05T10:15:06.538Z,6.98
2017-12-05T10:16:06.444Z,7.04
2017-12-05T10:17:59.698Z,7.08
2017-12-05T10:18:59.623Z,7.05
2017-12-05T10:20:52.889Z,7.05
2017-12-05T10:21:52.799Z,7.11
2017-12-05T10:23:46.065Z,7.11
2017-12-05T10:24:45.974Z,7.08
2017-12-05T10:26:39.221Z,7.01
2017-12-05T10:27:39.153Z,7.15
2017-12-05T10:29:32.433Z,7.12
2017-12-05T10:30:32.341Z,7.03
2017-12-05T10:32:25.586Z,7.12
2017-12-05T10:33:25.518Z,7.03
2017-12-05T10:35:18.782Z,7.01
2017-12-05T10:36:18.694Z,7.04
2017-12-05T10:38:11.939Z,7.03
2017-12-05T10:39:11.874Z,7.04
2017-12-05T10:41:05.133Z,7.11
2017-12-05T10:42:05.044Z,7.01
2017-12-05T10:43:58.375Z,7.12
2017-12-05T10:44:58.302Z,7.03
2017-12-05T10:46:51.567Z,6.98
2017-12-05T10:47:51.478Z,7.22
2017-12-05T10:49:44.772Z,7.04
2017-12-05T10:50:44.678Z,7.03
2017-12-05T10:52:37.929Z,7.11
2017-12-05T10:53:37.855Z,7.08
2017-12-05T10:55:31.121Z,7.09
2017-12-05T10:56:31.033Z,7.16
2017-12-05T10:58:24.374Z,7.18
2017-12-05T10:59:24.302Z,7.13
2017-12-05T11:01:17.568Z,7.09
2017-12-05T11:02:17.480Z,7.09
2017-12-05T11:04:10.727Z,7.15
2017-12-05T11:05:10.654Z,7.18
2017-12-05T11:07:03.921Z,7.13
2017-12-05T11:08:03.832Z,7.16
2017-12-05T11:09:57.098Z,7.21
2017-12-05T11:10:57.014Z,7.29
2017-12-05T11:12:50.262Z,7.22
2017-12-05T11:13:50.187Z,7.22
2017-12-05T11:15:43.463Z,7.16
2017-12-05T11:16:43.378Z,7.11
2017-12-05T11:18:36.620Z,7.08
2017-12-05T11:19:36.550Z,7.13
2017-12-05T11:21:29.819Z,7.22
2017-12-05T11:22:29.728Z,7.26
2017-12-05T11:24:22.983Z,7.22
2017-12-05T11:25:22.916Z,7.18
2017-12-05T11:27:16.180Z,7.19
2017-12-05T11:28:16.093Z,7.22
2017-12-05T11:30:09.363Z,7.21
2017-12-05T11:31:09.266Z,7.13
2017-12-05T11:33:02.546Z,7.16
2017-12-05T11:34:02.456Z,7.26
2017-12-05T11:35:55.750Z,7.27
2017-12-05T11:36:55.655Z,7.22
2017-12-05T11:38:48.905Z,7.33
2017-12-05T11:39:48.832Z,7.33
2017-12-05T11:41:42.100Z,7.33
2017-12-05T11:42:42.008Z,7.27
2017-12-05T11:44:35.262Z,7.26
2017-12-05T11:45:35.185Z,7.36
2017-12-05T11:47:28.454Z,7.31
2017-12-05T11:48:28.372Z,7.27
2017-12-05T11:50:21.628Z,7.34
2017-12-05T11:51:21.544Z,7.26
2017-12-05T11:53:14.785Z,7.31
2017-12-05T11:54:14.713Z,7.31
2017-12-05T11:56:07.982Z,7.31
2017-12-05T11:57:07.889Z,7.29
2017-12-05T11:59:01.139Z,7.33
2017-12-05T12:00:01.070Z,7.36
2017-12-05T12:01:54.392Z,7.39
2017-12-05T12:02:54.304Z,7.33
2017-12-05T12:04:47.554Z,7.37
2017-12-05T12:05:47.482Z,7.44
2017-12-05T12:07:40.749Z,7.41
2017-12-05T12:08:40.661Z,7.39
2017-12-05T12:10:33.930Z,7.37
2017-12-05T12:11:33.853Z,7.41
2017-12-05T12:13:27.095Z,7.41
2017-12-05T12:14:27.026Z,7.45
2017-12-05T12:16:20.295Z,7.49
2017-12-05T12:17:20.207Z,7.37
2017-12-05T12:19:13.457Z,7.41
2017-12-05T12:20:13.388Z,7.41
2017-12-05T12:22:06.658Z,7.45
2017-12-05T12:23:06.568Z,7.45
2017-12-05T12:24:59.814Z,7.41
2017-12-05T12:25:59.741Z,7.45
2017-12-05T12:27:53.014Z,7.49
2017-12-05T12:28:52.926Z,7.52
2017-12-05T12:30:46.189Z,7.40
2017-12-05T12:31:46.100Z,7.44
2017-12-05T12:33:39.339Z,7.44
2017-12-05T12:34:39.277Z,7.48
2017-12-05T12:36:32.565Z,7.45
2017-12-05T12:37:32.476Z,7.47
2017-12-05T12:39:25.738Z,7.45
2017-12-05T12:40:25.668Z,7.48
2017-12-05T12:42:18.924Z,7.44
2017-12-05T12:43:18.836Z,7.44
2017-12-05T12:45:12.087Z,7.40
2017-12-05T12:46:12.013Z,7.45
2017-12-05T12:48:05.288Z,7.45
2017-12-05T12:49:05.199Z,7.44
2017-12-05T12:50:58.467Z,7.44
2017-12-05T12:51:58.377Z,7.40
2017-12-05T12:53:51.626Z,7.45
2017-12-05T12:54:51.554Z,7.44
2017-12-05T12:56:44.833Z,7.47
2017-12-05T12:57:44.743Z,7.40
2017-12-05T12:59:37.993Z,7.48
2017-12-05T13:00:37.922Z,7.44
2017-12-05T13:02:31.201Z,7.36
2017-12-05T13:03:31.115Z,7.34
2017-12-05T13:05:24.372Z,7.45
2017-12-05T13:06:24.307Z,7.44
2017-12-05T13:08:17.576Z,7.41
2017-12-05T13:09:17.475Z,7.41
2017-12-05T13:11:10.745Z,7.45
2017-12-05T13:12:10.656Z,7.37
2017-12-05T13:14:03.902Z,7.41
2017-12-05T13:15:03.831Z,7.39
2017-12-05T13:16:57.099Z,7.40
2017-12-05T13:17:57.053Z,7.37
2017-12-05T13:19:50.260Z,7.44
2017-12-05T13:20:50.191Z,7.47
2017-12-05T13:22:43.462Z,7.47
2017-12-05T13:23:43.370Z,7.44
2017-12-05T13:25:36.616Z,7.49
2017-12-05T13:26:36.544Z,7.52
2017-12-05T13:28:29.810Z,7.52
2017-12-05T13:29:29.722Z,7.56
2017-12-05T13:31:22.987Z,7.54
2017-12-05T13:32:22.897Z,7.51
2017-12-05T13:34:16.145Z,7.45
2017-12-05T13:35:16.078Z,7.45
2017-12-05T13:37:09.364Z,7.48
2017-12-05T13:38:09.276Z,7.55
2017-12-05T13:40:02.520Z,7.52
2017-12-05T13:41:02.454Z,7.48
2017-12-05T13:42:55.717Z,7.55
2017-12-05T13:43:55.631Z,7.54
2017-12-05T13:45:48.876Z,7.44
2017-12-05T13:46:48.805Z,7.41
2017-12-05T13:48:42.077Z,7.47
2017-12-05T13:49:41.988Z,7.47
2017-12-05T13:51:35.259Z,7.45
2017-12-05T13:52:35.167Z,7.39
2017-12-05T13:54:28.409Z,7.47
2017-12-05T13:55:28.344Z,7.49
2017-12-05T13:57:21.606Z,7.45
2017-12-05T13:58:21.520Z,7.52
2017-12-05T14:00:14.777Z,7.48
2017-12-05T14:01:14.708Z,7.54
2017-12-05T14:03:07.975Z,7.45
2017-12-05T14:04:07.884Z,7.40
2017-12-05T14:06:01.129Z,7.49
2017-12-05T14:07:01.060Z,7.45
2017-12-05T14:08:54.395Z,7.45
2017-12-05T14:09:54.306Z,7.45
2017-12-05T14:11:47.571Z,7.55
2017-12-05T14:12:47.486Z,7.52
2017-12-05T14:14:40.731Z,7.56
2017-12-05T14:15:40.662Z,7.47
2017-12-05T14:17:33.928Z,7.41
2017-12-05T14:18:33.841Z,7.41
2017-12-05T14:20:27.086Z,7.41
2017-12-05T14:21:27.016Z,7.47
2017-12-05T14:23:20.281Z,7.45
2017-12-05T14:24:20.193Z,7.41
2017-12-05T14:26:13.441Z,7.45
2017-12-05T14:27:13.370Z,7.36
2017-12-05T14:29:06.636Z,7.45
2017-12-05T14:30:06.557Z,7.39
2017-12-05T14:31:59.820Z,7.41
2017-12-05T14:32:59.727Z,7.40
2017-12-05T14:34:52.975Z,7.45
2017-12-05T14:35:52.905Z,7.41
2017-12-05T14:37:46.171Z,7.41
2017-12-05T14:38:46.083Z,7.41
2017-12-05T14:40:39.330Z,7.44
2017-12-05T14:41:39.259Z,7.44
2017-12-05T14:43:32.527Z,7.49
2017-12-05T14:44:32.437Z,7.49
2017-12-05T14:46:25.683Z,7.47
2017-12-05T14:47:25.613Z,7.45
2017-12-05T14:49:18.879Z,7.41
2017-12-05T14:50:18.791Z,7.47
2017-12-05T14:52:12.059Z,7.48
2017-12-05T14:53:11.971Z,7.51
2017-12-05T14:55:05.217Z,7.48
2017-12-05T14:56:05.147Z,7.47
2017-12-05T14:57:58.412Z,7.49
2017-12-05T14:58:58.328Z,7.48
2017-12-05T15:00:51.572Z,7.45
2017-12-05T15:01:51.497Z,7.49
2017-12-05T15:03:44.776Z,7.48
2017-12-05T15:04:44.677Z,7.44
2017-12-05T15:06:37.961Z,7.49
2017-12-05T15:07:37.873Z,7.41
2017-12-05T15:09:31.141Z,7.45
2017-12-05T15:10:31.052Z,7.39
2017-12-05T15:12:24.393Z,7.39
2017-12-05T15:13:24.306Z,7.33
2017-12-05T15:15:17.553Z,7.34
2017-12-05T15:16:17.537Z,7.30
2017-12-05T15:18:10.755Z,7.31
2017-12-05T15:19:10.656Z,7.23
2017-12-05T15:21:03.916Z,7.30
2017-12-05T15:22:03.844Z,7.31
2017-12-05T15:23:57.110Z,7.19
2017-12-05T15:24:57.023Z,7.31
2017-12-05T15:26:50.290Z,7.27
2017-12-05T15:27:50.200Z,7.26
2017-12-05T15:29:43.476Z,7.19
2017-12-05T15:30:43.379Z,7.22
2017-12-05T15:32:36.674Z,7.22
2017-12-05T15:33:36.583Z,7.23
2017-12-05T15:35:29.846Z,7.30
2017-12-05T15:36:29.771Z,7.26
2017-12-05T15:38:23.033Z,7.22
2017-12-05T15:39:22.944Z,7.33
2017-12-05T15:41:16.195Z,7.27
2017-12-05T15:42:16.123Z,7.30
2017-12-05T15:44:09.408Z,7.29
2017-12-05T15:45:09.328Z,7.26
2017-12-05T15:47:02.602Z,7.33
2017-12-05T15:48:02.504Z,7.29
2017-12-05T15:49:56.794Z,7.18
2017-12-05T15:50:56.721Z,7.23
2017-12-05T15:52:49.996Z,7.19
2017-12-05T15:53:49.910Z,7.19
2017-12-05T15:55:43.166Z,7.26
2017-12-05T15:56:43.083Z,7.29
2017-12-05T15:58:36.512Z,7.29
2017-12-05T15:59:36.424Z,7.31
2017-12-05T16:01:29.675Z,7.21
2017-12-05T16:02:29.603Z,7.29
2017-12-05T16:04:22.871Z,7.19
2017-12-05T16:05:22.781Z,7.23
2017-12-05T16:07:16.070Z,7.26
2017-12-05T16:08:15.971Z,7.23
2017-12-05T16:10:09.214Z,7.16
2017-12-05T16:11:09.143Z,7.23
2017-12-05T16:13:02.515Z,7.23
2017-12-05T16:14:02.426Z,7.27
2017-12-05T16:15:55.677Z,7.37
2017-12-05T16:16:55.605Z,7.23
2017-12-05T16:18:48.872Z,7.23
2017-12-05T16:19:48.780Z,7.16
2017-12-05T16:21:42.026Z,7.13
2017-12-05T16:22:41.956Z,7.21
2017-12-05T16:24:35.220Z,7.27
2017-12-05T16:25:35.132Z,7.22
2017-12-05T16:27:28.510Z,7.31
2017-12-05T16:28:28.420Z,7.33
2017-12-05T16:30:21.679Z,7.33
2017-12-05T16:31:21.636Z,7.23
2017-12-05T16:33:14.885Z,7.23
2017-12-05T16:34:14.796Z,7.29
2017-12-05T16:36:08.044Z,7.27
2017-12-05T16:37:07.973Z,7.27
2017-12-05T16:39:01.249Z,7.22
2017-12-05T16:40:01.160Z,7.29
2017-12-05T16:41:54.429Z,7.27
2017-12-05T16:42:54.357Z,7.19
2017-12-05T16:44:47.632Z,7.22
2017-12-05T16:45:47.547Z,7.26
2017-12-05T16:47:40.822Z,7.22
2017-12-05T16:48:40.732Z,7.23
2017-12-05T16:50:33.989Z,7.21
2017-12-05T16:51:33.920Z,7.23
2017-12-05T16:53:27.195Z,7.30
2017-12-05T16:54:27.116Z,7.22
2017-12-05T16:56:20.380Z,7.29
2017-12-05T16:57:20.308Z,7.21
2017-12-05T16:59:13.579Z,7.29
2017-12-05T17:00:13.487Z,7.27
2017-12-05T17:02:06.746Z,7.23
2017-12-05T17:03:06.677Z,7.19
2017-12-05T17:04:59.956Z,7.22
2017-12-05T17:05:59.871Z,7.23
2017-12-05T17:07:53.136Z,7.26
2017-12-05T17:08:53.056Z,7.15
2017-12-05T17:10:46.487Z,7.22
2017-12-05T17:11:46.418Z,7.23
2017-12-05T17:13:39.683Z,7.18
2017-12-05T17:14:39.595Z,7.27
2017-12-05T17:16:32.848Z,7.27
2017-12-05T17:17:32.778Z,7.27
2017-12-05T17:19:26.052Z,7.21
2017-12-05T17:20:25.951Z,7.33
2017-12-05T17:22:19.210Z,7.26
2017-12-05T17:23:19.156Z,7.19
2017-12-05T17:25:12.558Z,7.31
2017-12-05T17:26:12.417Z,7.26
2017-12-05T17:28:05.687Z,7.23
2017-12-05T17:29:05.598Z,7.27
2017-12-05T17:30:58.851Z,7.33
2017-12-05T17:31:58.780Z,7.31
2017-12-05T17:33:52.066Z,7.31
2017-12-05T17:34:51.968Z,7.31
2017-12-05T17:36:45.215Z,7.30
2017-12-05T17:37:45.145Z,7.29
2017-12-05T17:39:38.513Z,7.31
2017-12-05T17:40:38.422Z,7.22
2017-12-05T17:42:31.685Z,7.27
2017-12-05T17:43:31.614Z,7.29
2017-12-05T17:45:24.881Z,7.21
2017-12-05T17:46:24.787Z,7.23
2017-12-05T17:48:18.065Z,7.19
2017-12-05T17:49:18.064Z,7.13
2017-12-05T17:51:11.233Z,7.23
2017-12-05T17:52:11.164Z,7.26
2017-12-05T17:54:04.504Z,7.31
2017-12-05T17:55:04.418Z,7.30
2017-12-05T17:56:57.672Z,7.22
2017-12-05T17:57:57.601Z,7.22
2017-12-05T17:59:50.902Z,7.23
2017-12-05T18:00:50.795Z,7.15
2017-12-05T18:02:44.046Z,7.26
2017-12-05T18:03:43.976Z,7.27
2017-12-05T18:05:37.253Z,7.29
2017-12-05T18:06:37.163Z,7.26
2017-12-05T18:08:30.522Z,7.22
2017-12-05T18:09:30.423Z,7.21
2017-12-05T18:11:23.666Z,7.29
2017-12-05T18:12:23.597Z,7.23
2017-12-05T18:14:16.872Z,7.29
2017-12-05T18:15:16.785Z,7.30
2017-12-05T18:17:10.031Z,7.27
2017-12-05T18:18:09.961Z,7.29
2017-12-05T18:20:03.223Z,7.34
2017-12-05T18:21:03.136Z,7.33
2017-12-05T18:22:56.493Z,7.23
2017-12-05T18:23:56.429Z,7.21
2017-12-05T18:25:49.698Z,7.29
2017-12-05T18:26:49.609Z,7.31
2017-12-05T18:28:42.879Z,7.22
2017-12-05T18:29:42.790Z,7.22
2017-12-05T18:31:36.038Z,7.22
2017-12-05T18:32:35.966Z,7.22
2017-12-05T18:34:29.242Z,7.27
2017-12-05T18:35:29.157Z,7.31
2017-12-05T18:37:22.496Z,7.30
2017-12-05T18:38:22.427Z,7.19
2017-12-05T18:40:15.708Z,7.21
2017-12-05T18:41:15.614Z,7.26
2017-12-05T18:43:08.899Z,7.27
2017-12-05T18:44:08.806Z,7.26
2017-12-05T18:46:02.077Z,7.23
2017-12-05T18:47:01.989Z,7.19
2017-12-05T18:48:55.253Z,7.18
2017-12-05T18:49:55.164Z,7.19
2017-12-05T18:51:48.493Z,7.21
2017-12-05T18:52:48.422Z,7.23
2017-12-05T18:54:41.701Z,7.29
2017-12-05T18:55:41.613Z,7.26
2017-12-05T18:57:34.874Z,7.33
2017-12-05T18:58:34.795Z,7.31
2017-12-05T19:00:28.074Z,7.31
2017-12-05T19:01:27.985Z,7.23
2017-12-05T19:03:21.250Z,7.33
2017-12-05T19:04:21.181Z,7.29
2017-12-05T19:06:14.511Z,7.33
2017-12-05T19:07:14.413Z,7.27
2017-12-05T19:09:07.689Z,7.30
2017-12-05T19:10:07.600Z,7.29
2017-12-05T19:12:00.859Z,7.29